sensor_id;sensor_type;location;lat;lon;timestamp;temperature;humidity
65568;DHT22;52211;50.154;8.682;2023-04-24T00:01:34;15.00;58.80
65568;DHT22;52211;50.154;8.682;2023-04-24T00:04:06;15.00;58.80
65568;DHT22;52211;50.154;8.682;2023-04-24T00:06:33;15.00;58.80
65568;DHT22;52211;50.154;8.682;2023-04-24T00:09:03;15.00;58.80
65568;DHT22;52211;50.154;8.682;2023-04-24T00:11:30;15.00;59.00
65568;DHT22;52211;50.154;8.682;2023-04-24T00:13:59;14.90;58.90
65568;DHT22;52211;50.154;8.682;2023-04-24T00:16:29;15.00;59.00
65568;DHT22;52211;50.154;8.682;2023-04-24T00:18:58;15.00;59.00
65568;DHT22;52211;50.154;8.682;2023-04-24T00:21:30;14.90;58.90
65568;DHT22;52211;50.154;8.682;2023-04-24T00:23:59;14.90;59.00
65568;DHT22;52211;50.154;8.682;2023-04-24T00:26:28;14.90;59.00
65568;DHT22;52211;50.154;8.682;2023-04-24T00:28:55;14.90;59.10
65568;DHT22;52211;50.154;8.682;2023-04-24T00:31:26;15.00;59.10
65568;DHT22;52211;50.154;8.682;2023-04-24T00:33:55;14.90;59.10
65568;DHT22;52211;50.154;8.682;2023-04-24T00:36:24;15.00;59.20
65568;DHT22;52211;50.154;8.682;2023-04-24T00:39:02;15.00;59.30
65568;DHT22;52211;50.154;8.682;2023-04-24T00:41:33;14.90;59.30
65568;DHT22;52211;50.154;8.682;2023-04-24T00:44:02;14.90;59.30
65568;DHT22;52211;50.154;8.682;2023-04-24T00:46:29;14.90;59.30
65568;DHT22;52211;50.154;8.682;2023-04-24T00:49:02;15.00;59.40
65568;DHT22;52211;50.154;8.682;2023-04-24T00:51:29;14.90;59.40
65568;DHT22;52211;50.154;8.682;2023-04-24T00:54:00;14.90;59.50
65568;DHT22;52211;50.154;8.682;2023-04-24T00:56:28;14.90;59.50
65568;DHT22;52211;50.154;8.682;2023-04-24T00:58:55;14.90;59.40
65568;DHT22;52211;50.154;8.682;2023-04-24T01:01:26;14.90;59.40
65568;DHT22;52211;50.154;8.682;2023-04-24T01:03:53;14.90;59.50
65568;DHT22;52211;50.154;8.682;2023-04-24T01:06:27;14.90;59.50
65568;DHT22;52211;50.154;8.682;2023-04-24T01:08:55;14.90;59.60
65568;DHT22;52211;50.154;8.682;2023-04-24T01:11:25;14.90;59.50
65568;DHT22;52211;50.154;8.682;2023-04-24T01:13:55;14.90;59.50
65568;DHT22;52211;50.154;8.682;2023-04-24T01:16:25;14.90;59.60
65568;DHT22;52211;50.154;8.682;2023-04-24T01:18:53;14.90;59.50
65568;DHT22;52211;50.154;8.682;2023-04-24T01:21:23;14.80;59.50
65568;DHT22;52211;50.154;8.682;2023-04-24T01:23:56;14.80;59.60
65568;DHT22;52211;50.154;8.682;2023-04-24T01:26:26;14.80;59.60
65568;DHT22;52211;50.154;8.682;2023-04-24T01:28:57;14.80;59.60
65568;DHT22;52211;50.154;8.682;2023-04-24T01:31:29;14.80;59.60
65568;DHT22;52211;50.154;8.682;2023-04-24T01:33:56;14.80;59.60
65568;DHT22;52211;50.154;8.682;2023-04-24T01:36:27;14.80;59.70
65568;DHT22;52211;50.154;8.682;2023-04-24T01:38:58;14.70;59.70
65568;DHT22;52211;50.154;8.682;2023-04-24T01:41:28;14.80;60.40
65568;DHT22;52211;50.154;8.682;2023-04-24T01:44:01;14.70;59.70
65568;DHT22;52211;50.154;8.682;2023-04-24T01:46:34;14.70;59.80
65568;DHT22;52211;50.154;8.682;2023-04-24T01:49:07;14.70;59.70
65568;DHT22;52211;50.154;8.682;2023-04-24T01:51:37;14.70;59.80
65568;DHT22;52211;50.154;8.682;2023-04-24T01:54:05;14.80;59.90
65568;DHT22;52211;50.154;8.682;2023-04-24T01:56:37;14.70;59.80
65568;DHT22;52211;50.154;8.682;2023-04-24T01:59:10;14.80;60.00
65568;DHT22;52211;50.154;8.682;2023-04-24T02:01:41;14.80;59.90
65568;DHT22;52211;50.154;8.682;2023-04-24T02:04:10;14.70;59.90
65568;DHT22;52211;50.154;8.682;2023-04-24T02:06:45;14.70;59.90
65568;DHT22;52211;50.154;8.682;2023-04-24T02:09:14;14.70;60.00
65568;DHT22;52211;50.154;8.682;2023-04-24T02:11:46;14.70;60.00
65568;DHT22;52211;50.154;8.682;2023-04-24T02:14:13;14.70;60.10
65568;DHT22;52211;50.154;8.682;2023-04-24T02:16:42;14.70;60.10
65568;DHT22;52211;50.154;8.682;2023-04-24T02:19:10;14.70;60.00
65568;DHT22;52211;50.154;8.682;2023-04-24T02:21:37;14.70;60.00
65568;DHT22;52211;50.154;8.682;2023-04-24T02:24:08;14.70;60.10
65568;DHT22;52211;50.154;8.682;2023-04-24T02:26:37;14.70;60.10
65568;DHT22;52211;50.154;8.682;2023-04-24T02:29:06;14.70;60.10
65568;DHT22;52211;50.154;8.682;2023-04-24T02:31:35;14.60;60.00
65568;DHT22;52211;50.154;8.682;2023-04-24T02:34:02;14.60;60.20
65568;DHT22;52211;50.154;8.682;2023-04-24T02:36:31;14.60;60.10
65568;DHT22;52211;50.154;8.682;2023-04-24T02:39:00;14.60;60.20
65568;DHT22;52211;50.154;8.682;2023-04-24T02:41:37;14.60;60.20
65568;DHT22;52211;50.154;8.682;2023-04-24T02:44:06;14.60;60.30
65568;DHT22;52211;50.154;8.682;2023-04-24T02:46:38;14.50;60.20
65568;DHT22;52211;50.154;8.682;2023-04-24T02:49:08;14.50;60.40
65568;DHT22;52211;50.154;8.682;2023-04-24T02:51:41;14.50;60.30
65568;DHT22;52211;50.154;8.682;2023-04-24T02:54:08;14.40;60.30
65568;DHT22;52211;50.154;8.682;2023-04-24T02:56:41;14.40;60.40
65568;DHT22;52211;50.154;8.682;2023-04-24T02:59:10;14.40;60.60
65568;DHT22;52211;50.154;8.682;2023-04-24T03:01:37;14.40;60.50
65568;DHT22;52211;50.154;8.682;2023-04-24T03:04:04;14.40;60.50
65568;DHT22;52211;50.154;8.682;2023-04-24T03:06:33;14.30;60.60
65568;DHT22;52211;50.154;8.682;2023-04-24T03:09:05;14.30;60.60
65568;DHT22;52211;50.154;8.682;2023-04-24T03:11:32;14.30;60.70
65568;DHT22;52211;50.154;8.682;2023-04-24T03:13:59;14.30;60.70
65568;DHT22;52211;50.154;8.682;2023-04-24T03:16:28;14.30;60.70
65568;DHT22;52211;50.154;8.682;2023-04-24T03:18:55;14.30;60.80
65568;DHT22;52211;50.154;8.682;2023-04-24T03:21:27;14.30;60.80
65568;DHT22;52211;50.154;8.682;2023-04-24T03:24:00;14.30;60.80
65568;DHT22;52211;50.154;8.682;2023-04-24T03:26:29;14.30;60.70
65568;DHT22;52211;50.154;8.682;2023-04-24T03:29:09;14.20;60.70
65568;DHT22;52211;50.154;8.682;2023-04-24T03:31:41;14.20;60.70
65568;DHT22;52211;50.154;8.682;2023-04-24T03:34:10;14.30;60.90
65568;DHT22;52211;50.154;8.682;2023-04-24T03:36:38;14.30;60.90
65568;DHT22;52211;50.154;8.682;2023-04-24T03:39:08;14.30;60.90
65568;DHT22;52211;50.154;8.682;2023-04-24T03:41:39;14.20;60.90
65568;DHT22;52211;50.154;8.682;2023-04-24T03:44:18;14.20;61.00
65568;DHT22;52211;50.154;8.682;2023-04-24T03:46:50;14.20;61.00
65568;DHT22;52211;50.154;8.682;2023-04-24T03:49:23;14.20;61.00
65568;DHT22;52211;50.154;8.682;2023-04-24T03:51:55;14.20;61.00
65568;DHT22;52211;50.154;8.682;2023-04-24T03:54:25;14.20;61.00
65568;DHT22;52211;50.154;8.682;2023-04-24T03:56:54;14.20;61.00
65568;DHT22;52211;50.154;8.682;2023-04-24T03:59:21;14.20;61.00
65568;DHT22;52211;50.154;8.682;2023-04-24T04:02:00;14.20;61.10
65568;DHT22;52211;50.154;8.682;2023-04-24T04:04:27;14.20;61.10
65568;DHT22;52211;50.154;8.682;2023-04-24T04:06:59;14.20;61.10
65568;DHT22;52211;50.154;8.682;2023-04-24T04:09:30;14.10;61.00
65568;DHT22;52211;50.154;8.682;2023-04-24T04:11:56;14.20;61.10
65568;DHT22;52211;50.154;8.682;2023-04-24T04:14:29;14.10;61.10
65568;DHT22;52211;50.154;8.682;2023-04-24T04:16:58;14.10;61.10
65568;DHT22;52211;50.154;8.682;2023-04-24T04:19:27;14.10;61.10
65568;DHT22;52211;50.154;8.682;2023-04-24T04:21:57;14.10;61.20
65568;DHT22;52211;50.154;8.682;2023-04-24T04:24:32;14.10;61.10
65568;DHT22;52211;50.154;8.682;2023-04-24T04:27:07;14.10;61.00
65568;DHT22;52211;50.154;8.682;2023-04-24T04:29:47;14.10;60.90
65568;DHT22;52211;50.154;8.682;2023-04-24T04:32:15;14.10;60.90
65568;DHT22;52211;50.154;8.682;2023-04-24T04:34:44;14.10;60.70
65568;DHT22;52211;50.154;8.682;2023-04-24T04:37:16;14.10;60.60
65568;DHT22;52211;50.154;8.682;2023-04-24T04:39:50;14.10;60.60
65568;DHT22;52211;50.154;8.682;2023-04-24T04:42:21;14.00;60.20
65568;DHT22;52211;50.154;8.682;2023-04-24T04:44:50;14.00;59.80
65568;DHT22;52211;50.154;8.682;2023-04-24T04:47:26;13.90;59.60
65568;DHT22;52211;50.154;8.682;2023-04-24T04:49:59;13.90;59.40
65568;DHT22;52211;50.154;8.682;2023-04-24T04:52:31;13.80;59.20
65568;DHT22;52211;50.154;8.682;2023-04-24T04:55:12;13.80;59.20
65568;DHT22;52211;50.154;8.682;2023-04-24T04:58:02;13.70;59.20
65568;DHT22;52211;50.154;8.682;2023-04-24T05:00:33;13.70;59.20
65568;DHT22;52211;50.154;8.682;2023-04-24T05:03:14;13.60;59.10
65568;DHT22;52211;50.154;8.682;2023-04-24T05:05:52;13.60;59.00
65568;DHT22;52211;50.154;8.682;2023-04-24T05:08:24;13.50;58.90
65568;DHT22;52211;50.154;8.682;2023-04-24T05:10:55;13.50;59.00
65568;DHT22;52211;50.154;8.682;2023-04-24T05:13:29;13.50;59.10
65568;DHT22;52211;50.154;8.682;2023-04-24T05:16:08;13.50;59.00
65568;DHT22;52211;50.154;8.682;2023-04-24T05:18:40;13.40;59.00
65568;DHT22;52211;50.154;8.682;2023-04-24T05:21:11;13.40;58.90
65568;DHT22;52211;50.154;8.682;2023-04-24T05:23:43;13.30;59.00
65568;DHT22;52211;50.154;8.682;2023-04-24T05:26:14;13.30;59.00
65568;DHT22;52211;50.154;8.682;2023-04-24T05:28:46;13.30;59.10
65568;DHT22;52211;50.154;8.682;2023-04-24T05:31:16;13.30;59.10
65568;DHT22;52211;50.154;8.682;2023-04-24T05:33:45;13.30;59.20
65568;DHT22;52211;50.154;8.682;2023-04-24T05:36:14;13.30;59.20
65568;DHT22;52211;50.154;8.682;2023-04-24T05:38:41;13.20;59.20
65568;DHT22;52211;50.154;8.682;2023-04-24T05:41:10;13.20;59.30
65568;DHT22;52211;50.154;8.682;2023-04-24T05:43:37;13.20;59.40
65568;DHT22;52211;50.154;8.682;2023-04-24T05:46:04;13.20;59.20
65568;DHT22;52211;50.154;8.682;2023-04-24T05:48:34;13.20;59.00
65568;DHT22;52211;50.154;8.682;2023-04-24T05:51:05;13.20;58.90
65568;DHT22;52211;50.154;8.682;2023-04-24T05:53:36;13.20;58.80
65568;DHT22;52211;50.154;8.682;2023-04-24T05:56:05;13.20;58.80
65568;DHT22;52211;50.154;8.682;2023-04-24T05:58:35;13.20;58.50
65568;DHT22;52211;50.154;8.682;2023-04-24T06:01:06;13.20;58.30
65568;DHT22;52211;50.154;8.682;2023-04-24T06:03:37;13.10;58.20
65568;DHT22;52211;50.154;8.682;2023-04-24T06:06:06;13.20;57.90
65568;DHT22;52211;50.154;8.682;2023-04-24T06:08:35;13.20;57.90
65568;DHT22;52211;50.154;8.682;2023-04-24T06:11:02;13.20;57.70
65568;DHT22;52211;50.154;8.682;2023-04-24T06:13:31;13.20;57.60
65568;DHT22;52211;50.154;8.682;2023-04-24T06:16:24;13.30;57.70
65568;DHT22;52211;50.154;8.682;2023-04-24T06:18:57;13.30;57.70
65568;DHT22;52211;50.154;8.682;2023-04-24T06:21:24;13.30;57.60
65568;DHT22;52211;50.154;8.682;2023-04-24T06:23:52;13.30;57.60
65568;DHT22;52211;50.154;8.682;2023-04-24T06:26:22;13.30;57.50
65568;DHT22;52211;50.154;8.682;2023-04-24T06:28:57;13.30;57.30
65568;DHT22;52211;50.154;8.682;2023-04-24T06:31:25;13.30;57.40
65568;DHT22;52211;50.154;8.682;2023-04-24T06:33:53;13.30;57.40
65568;DHT22;52211;50.154;8.682;2023-04-24T06:36:20;13.20;57.30
65568;DHT22;52211;50.154;8.682;2023-04-24T06:38:47;13.30;57.30
65568;DHT22;52211;50.154;8.682;2023-04-24T06:41:19;13.20;57.30
65568;DHT22;52211;50.154;8.682;2023-04-24T06:43:48;13.30;57.40
65568;DHT22;52211;50.154;8.682;2023-04-24T06:46:15;13.30;57.40
65568;DHT22;52211;50.154;8.682;2023-04-24T06:48:42;13.30;57.30
65568;DHT22;52211;50.154;8.682;2023-04-24T06:51:16;13.30;57.30
65568;DHT22;52211;50.154;8.682;2023-04-24T06:53:44;13.20;57.10
65568;DHT22;52211;50.154;8.682;2023-04-24T06:56:16;13.30;57.20
65568;DHT22;52211;50.154;8.682;2023-04-24T06:58:46;13.30;57.10
65568;DHT22;52211;50.154;8.682;2023-04-24T07:01:15;13.20;56.90
65568;DHT22;52211;50.154;8.682;2023-04-24T07:03:42;13.20;56.90
65568;DHT22;52211;50.154;8.682;2023-04-24T07:06:10;13.20;56.90
65568;DHT22;52211;50.154;8.682;2023-04-24T07:08:39;13.20;56.90
65568;DHT22;52211;50.154;8.682;2023-04-24T07:11:10;13.20;56.70
65568;DHT22;52211;50.154;8.682;2023-04-24T07:13:37;13.20;56.80
65568;DHT22;52211;50.154;8.682;2023-04-24T07:16:10;13.20;56.90
65568;DHT22;52211;50.154;8.682;2023-04-24T07:18:38;13.20;57.00
65568;DHT22;52211;50.154;8.682;2023-04-24T07:21:08;13.10;56.90
65568;DHT22;52211;50.154;8.682;2023-04-24T07:23:38;13.20;57.00
65568;DHT22;52211;50.154;8.682;2023-04-24T07:26:05;13.20;56.90
65568;DHT22;52211;50.154;8.682;2023-04-24T07:28:34;13.20;57.00
65568;DHT22;52211;50.154;8.682;2023-04-24T07:31:01;13.20;57.00
65568;DHT22;52211;50.154;8.682;2023-04-24T07:33:28;13.20;57.10
65568;DHT22;52211;50.154;8.682;2023-04-24T07:35:55;13.30;57.30
65568;DHT22;52211;50.154;8.682;2023-04-24T07:38:24;13.30;57.20
65568;DHT22;52211;50.154;8.682;2023-04-24T07:40:57;13.40;57.20
65568;DHT22;52211;50.154;8.682;2023-04-24T07:43:26;13.40;57.20
65568;DHT22;52211;50.154;8.682;2023-04-24T07:45:56;13.50;57.20
65568;DHT22;52211;50.154;8.682;2023-04-24T07:48:25;13.50;57.10
65568;DHT22;52211;50.154;8.682;2023-04-24T07:50:53;13.60;57.10
65568;DHT22;52211;50.154;8.682;2023-04-24T07:53:22;13.60;57.10
65568;DHT22;52211;50.154;8.682;2023-04-24T07:55:51;13.70;57.10
65568;DHT22;52211;50.154;8.682;2023-04-24T07:58:23;13.70;57.10
65568;DHT22;52211;50.154;8.682;2023-04-24T08:00:52;13.80;56.90
65568;DHT22;52211;50.154;8.682;2023-04-24T08:03:19;13.80;57.00
65568;DHT22;52211;50.154;8.682;2023-04-24T08:05:49;13.90;57.00
65568;DHT22;52211;50.154;8.682;2023-04-24T08:08:22;14.00;56.90
65568;DHT22;52211;50.154;8.682;2023-04-24T08:10:53;14.10;56.70
65568;DHT22;52211;50.154;8.682;2023-04-24T08:13:26;14.20;56.60
65568;DHT22;52211;50.154;8.682;2023-04-24T08:15:53;14.20;56.30
65568;DHT22;52211;50.154;8.682;2023-04-24T08:18:24;14.20;56.00
65568;DHT22;52211;50.154;8.682;2023-04-24T08:20:53;14.20;55.80
65568;DHT22;52211;50.154;8.682;2023-04-24T08:23:23;14.20;55.90
65568;DHT22;52211;50.154;8.682;2023-04-24T08:25:49;14.20;55.80
65568;DHT22;52211;50.154;8.682;2023-04-24T08:28:19;14.20;55.70
65568;DHT22;52211;50.154;8.682;2023-04-24T08:30:48;14.20;55.50
65568;DHT22;52211;50.154;8.682;2023-04-24T08:33:24;14.20;55.50
65568;DHT22;52211;50.154;8.682;2023-04-24T08:35:51;14.30;55.20
65568;DHT22;52211;50.154;8.682;2023-04-24T08:38:19;14.30;55.40
65568;DHT22;52211;50.154;8.682;2023-04-24T08:40:48;14.30;55.40
65568;DHT22;52211;50.154;8.682;2023-04-24T08:43:22;14.40;55.20
65568;DHT22;52211;50.154;8.682;2023-04-24T08:45:55;14.40;55.10
65568;DHT22;52211;50.154;8.682;2023-04-24T08:48:23;14.50;55.10
65568;DHT22;52211;50.154;8.682;2023-04-24T08:50:59;14.60;55.10
65568;DHT22;52211;50.154;8.682;2023-04-24T08:53:27;14.60;54.80
65568;DHT22;52211;50.154;8.682;2023-04-24T08:55:57;14.70;54.40
65568;DHT22;52211;50.154;8.682;2023-04-24T08:58:27;14.70;54.40
65568;DHT22;52211;50.154;8.682;2023-04-24T09:00:58;14.70;54.10
65568;DHT22;52211;50.154;8.682;2023-04-24T09:03:28;14.70;54.10
65568;DHT22;52211;50.154;8.682;2023-04-24T09:05:55;14.70;54.30
65568;DHT22;52211;50.154;8.682;2023-04-24T09:08:29;14.70;54.00
65568;DHT22;52211;50.154;8.682;2023-04-24T09:10:57;14.70;54.10
65568;DHT22;52211;50.154;8.682;2023-04-24T09:13:25;14.70;54.20
65568;DHT22;52211;50.154;8.682;2023-04-24T09:15:55;14.70;54.20
65568;DHT22;52211;50.154;8.682;2023-04-24T09:18:27;14.60;54.00
65568;DHT22;52211;50.154;8.682;2023-04-24T09:23:34;14.60;54.20
65568;DHT22;52211;50.154;8.682;2023-04-24T09:26:02;14.60;54.20
65568;DHT22;52211;50.154;8.682;2023-04-24T09:28:38;14.60;54.30
65568;DHT22;52211;50.154;8.682;2023-04-24T09:31:15;14.60;54.20
65568;DHT22;52211;50.154;8.682;2023-04-24T09:36:29;14.50;54.20
65568;DHT22;52211;50.154;8.682;2023-04-24T09:39:05;14.50;54.20
65568;DHT22;52211;50.154;8.682;2023-04-24T09:41:51;14.40;54.30
65568;DHT22;52211;50.154;8.682;2023-04-24T09:44:21;14.40;54.20
65568;DHT22;52211;50.154;8.682;2023-04-24T09:46:51;14.40;54.40
65568;DHT22;52211;50.154;8.682;2023-04-24T09:49:26;14.40;54.50
65568;DHT22;52211;50.154;8.682;2023-04-24T09:52:09;14.40;54.50
65568;DHT22;52211;50.154;8.682;2023-04-24T09:54:39;14.40;54.30
65568;DHT22;52211;50.154;8.682;2023-04-24T09:57:09;14.40;54.40
65568;DHT22;52211;50.154;8.682;2023-04-24T09:59:46;14.40;54.40
65568;DHT22;52211;50.154;8.682;2023-04-24T10:02:20;14.40;54.40
65568;DHT22;52211;50.154;8.682;2023-04-24T10:04:55;14.40;54.30
65568;DHT22;52211;50.154;8.682;2023-04-24T10:07:26;14.40;54.40
65568;DHT22;52211;50.154;8.682;2023-04-24T10:10:00;14.40;54.30
65568;DHT22;52211;50.154;8.682;2023-04-24T10:12:32;14.40;54.40
65568;DHT22;52211;50.154;8.682;2023-04-24T10:15:02;14.30;54.50
65568;DHT22;52211;50.154;8.682;2023-04-24T10:17:32;14.30;54.70
65568;DHT22;52211;50.154;8.682;2023-04-24T10:20:01;14.40;54.70
65568;DHT22;52211;50.154;8.682;2023-04-24T10:22:29;14.40;54.70
65568;DHT22;52211;50.154;8.682;2023-04-24T10:25:01;14.40;54.70
65568;DHT22;52211;50.154;8.682;2023-04-24T10:27:36;14.40;54.80
65568;DHT22;52211;50.154;8.682;2023-04-24T10:30:07;14.40;54.90
65568;DHT22;52211;50.154;8.682;2023-04-24T10:32:36;14.40;54.90
65568;DHT22;52211;50.154;8.682;2023-04-24T10:35:12;14.40;55.00
65568;DHT22;52211;50.154;8.682;2023-04-24T10:37:49;14.40;55.00
65568;DHT22;52211;50.154;8.682;2023-04-24T10:40:35;14.40;55.30
65568;DHT22;52211;50.154;8.682;2023-04-24T10:43:04;14.40;55.50
65568;DHT22;52211;50.154;8.682;2023-04-24T10:45:34;14.30;56.30
65568;DHT22;52211;50.154;8.682;2023-04-24T10:48:08;14.30;55.90
65568;DHT22;52211;50.154;8.682;2023-04-24T10:50:50;14.20;56.00
65568;DHT22;52211;50.154;8.682;2023-04-24T10:53:27;14.20;56.60
65568;DHT22;52211;50.154;8.682;2023-04-24T10:58:38;14.00;56.90
65568;DHT22;52211;50.154;8.682;2023-04-24T11:01:31;14.00;57.30
65568;DHT22;52211;50.154;8.682;2023-04-24T11:04:01;13.90;57.60
65568;DHT22;52211;50.154;8.682;2023-04-24T11:06:39;13.90;57.60
65568;DHT22;52211;50.154;8.682;2023-04-24T11:09:09;13.90;58.00
65568;DHT22;52211;50.154;8.682;2023-04-24T11:11:45;13.90;58.00
65568;DHT22;52211;50.154;8.682;2023-04-24T11:14:16;14.00;58.20
65568;DHT22;52211;50.154;8.682;2023-04-24T11:16:52;14.00;58.20
65568;DHT22;52211;50.154;8.682;2023-04-24T11:19:25;14.10;58.50
65568;DHT22;52211;50.154;8.682;2023-04-24T11:22:03;14.20;58.20
65568;DHT22;52211;50.154;8.682;2023-04-24T11:24:38;14.20;58.00
65568;DHT22;52211;50.154;8.682;2023-04-24T11:27:16;14.30;58.10
65568;DHT22;52211;50.154;8.682;2023-04-24T11:35:15;14.50;58.20
65568;DHT22;52211;50.154;8.682;2023-04-24T11:37:54;14.70;58.20
65568;DHT22;52211;50.154;8.682;2023-04-24T11:40:44;14.80;58.20
65568;DHT22;52211;50.154;8.682;2023-04-24T11:43:12;15.00;57.90
65568;DHT22;52211;50.154;8.682;2023-04-24T11:45:50;15.20;57.70
65568;DHT22;52211;50.154;8.682;2023-04-24T11:48:20;15.30;57.50
65568;DHT22;52211;50.154;8.682;2023-04-24T11:50:52;15.30;57.30
65568;DHT22;52211;50.154;8.682;2023-04-24T11:53:22;15.40;57.20
65568;DHT22;52211;50.154;8.682;2023-04-24T11:55:51;15.40;56.90
65568;DHT22;52211;50.154;8.682;2023-04-24T11:58:23;15.30;56.70
65568;DHT22;52211;50.154;8.682;2023-04-24T12:00:57;15.20;56.90
65568;DHT22;52211;50.154;8.682;2023-04-24T12:03:27;15.10;57.20
65568;DHT22;52211;50.154;8.682;2023-04-24T12:06:08;15.00;57.50
65568;DHT22;52211;50.154;8.682;2023-04-24T12:08:39;15.00;57.80
65568;DHT22;52211;50.154;8.682;2023-04-24T12:11:08;15.00;57.70
65568;DHT22;52211;50.154;8.682;2023-04-24T12:13:38;15.00;57.70
65568;DHT22;52211;50.154;8.682;2023-04-24T12:16:05;14.90;57.70
65568;DHT22;52211;50.154;8.682;2023-04-24T12:18:34;14.90;57.70
65568;DHT22;52211;50.154;8.682;2023-04-24T12:21:21;14.90;57.80
65568;DHT22;52211;50.154;8.682;2023-04-24T12:23:55;14.90;57.80
65568;DHT22;52211;50.154;8.682;2023-04-24T12:26:27;14.90;57.70
65568;DHT22;52211;50.154;8.682;2023-04-24T12:29:01;14.90;57.70
65568;DHT22;52211;50.154;8.682;2023-04-24T12:31:35;14.80;57.70
65568;DHT22;52211;50.154;8.682;2023-04-24T12:34:04;14.80;57.50
65568;DHT22;52211;50.154;8.682;2023-04-24T12:36:51;14.60;57.40
65568;DHT22;52211;50.154;8.682;2023-04-24T12:39:21;14.40;57.60
65568;DHT22;52211;50.154;8.682;2023-04-24T12:41:57;14.30;58.00
65568;DHT22;52211;50.154;8.682;2023-04-24T12:44:34;14.20;58.80
65568;DHT22;52211;50.154;8.682;2023-04-24T12:47:06;14.20;59.20
65568;DHT22;52211;50.154;8.682;2023-04-24T12:49:41;14.20;59.20
65568;DHT22;52211;50.154;8.682;2023-04-24T12:52:10;14.30;59.30
65568;DHT22;52211;50.154;8.682;2023-04-24T12:54:37;14.40;59.30
65568;DHT22;52211;50.154;8.682;2023-04-24T12:57:04;14.40;59.30
65568;DHT22;52211;50.154;8.682;2023-04-24T12:59:35;14.50;59.40
65568;DHT22;52211;50.154;8.682;2023-04-24T13:02:07;14.50;59.40
65568;DHT22;52211;50.154;8.682;2023-04-24T13:04:38;14.50;59.40
65568;DHT22;52211;50.154;8.682;2023-04-24T13:07:07;14.60;59.50
65568;DHT22;52211;50.154;8.682;2023-04-24T13:09:34;14.70;59.70
65568;DHT22;52211;50.154;8.682;2023-04-24T13:12:02;14.80;60.00
65568;DHT22;52211;50.154;8.682;2023-04-24T13:14:31;15.00;59.80
65568;DHT22;52211;50.154;8.682;2023-04-24T13:17:04;15.10;59.50
65568;DHT22;52211;50.154;8.682;2023-04-24T13:19:38;15.30;59.50
65568;DHT22;52211;50.154;8.682;2023-04-24T13:22:06;15.50;59.60
65568;DHT22;52211;50.154;8.682;2023-04-24T13:24:38;15.60;59.80
65568;DHT22;52211;50.154;8.682;2023-04-24T13:27:08;15.70;58.70
65568;DHT22;52211;50.154;8.682;2023-04-24T13:29:38;15.80;58.30
65568;DHT22;52211;50.154;8.682;2023-04-24T13:32:06;15.90;57.70
65568;DHT22;52211;50.154;8.682;2023-04-24T13:34:35;15.90;57.20
65568;DHT22;52211;50.154;8.682;2023-04-24T13:37:07;15.90;56.90
65568;DHT22;52211;50.154;8.682;2023-04-24T13:39:40;15.90;56.50
65568;DHT22;52211;50.154;8.682;2023-04-24T13:42:10;15.90;56.00
65568;DHT22;52211;50.154;8.682;2023-04-24T13:44:44;15.80;55.20
65568;DHT22;52211;50.154;8.682;2023-04-24T13:47:11;15.60;55.20
65568;DHT22;52211;50.154;8.682;2023-04-24T13:49:43;15.40;55.60
65568;DHT22;52211;50.154;8.682;2023-04-24T13:52:10;15.30;56.50
65568;DHT22;52211;50.154;8.682;2023-04-24T13:54:42;15.30;57.50
65568;DHT22;52211;50.154;8.682;2023-04-24T13:57:09;15.40;57.80
65568;DHT22;52211;50.154;8.682;2023-04-24T13:59:38;15.40;57.70
65568;DHT22;52211;50.154;8.682;2023-04-24T14:02:07;15.50;57.50
65568;DHT22;52211;50.154;8.682;2023-04-24T14:04:37;15.50;57.10
65568;DHT22;52211;50.154;8.682;2023-04-24T14:07:07;15.50;57.00
65568;DHT22;52211;50.154;8.682;2023-04-24T14:09:40;15.40;57.00
65568;DHT22;52211;50.154;8.682;2023-04-24T14:12:07;15.50;57.00
65568;DHT22;52211;50.154;8.682;2023-04-24T14:14:37;15.50;57.30
65568;DHT22;52211;50.154;8.682;2023-04-24T14:17:08;15.60;57.90
65568;DHT22;52211;50.154;8.682;2023-04-24T14:19:35;15.80;58.60
65568;DHT22;52211;50.154;8.682;2023-04-24T14:22:07;16.00;58.50
65568;DHT22;52211;50.154;8.682;2023-04-24T14:24:34;16.30;58.40
65568;DHT22;52211;50.154;8.682;2023-04-24T14:27:03;16.60;58.40
65568;DHT22;52211;50.154;8.682;2023-04-24T14:29:32;16.80;57.00
65568;DHT22;52211;50.154;8.682;2023-04-24T14:32:01;16.90;56.40
65568;DHT22;52211;50.154;8.682;2023-04-24T14:34:28;17.00;56.00
65568;DHT22;52211;50.154;8.682;2023-04-24T14:36:59;17.10;55.20
65568;DHT22;52211;50.154;8.682;2023-04-24T14:39:30;17.10;54.70
65568;DHT22;52211;50.154;8.682;2023-04-24T14:41:59;17.00;54.00
65568;DHT22;52211;50.154;8.682;2023-04-24T14:44:29;16.90;54.00
65568;DHT22;52211;50.154;8.682;2023-04-24T14:47:01;16.80;53.60
65568;DHT22;52211;50.154;8.682;2023-04-24T14:49:30;16.80;53.50
65568;DHT22;52211;50.154;8.682;2023-04-24T14:51:57;16.60;53.60
65568;DHT22;52211;50.154;8.682;2023-04-24T14:54:29;16.50;53.70
65568;DHT22;52211;50.154;8.682;2023-04-24T14:56:56;16.50;54.00
65568;DHT22;52211;50.154;8.682;2023-04-24T14:59:31;16.40;54.20
65568;DHT22;52211;50.154;8.682;2023-04-24T15:02:00;16.40;54.20
65568;DHT22;52211;50.154;8.682;2023-04-24T15:04:44;16.30;54.20
65568;DHT22;52211;50.154;8.682;2023-04-24T15:07:16;16.30;54.20
65568;DHT22;52211;50.154;8.682;2023-04-24T15:09:43;16.30;54.20
65568;DHT22;52211;50.154;8.682;2023-04-24T15:12:15;16.30;54.20
65568;DHT22;52211;50.154;8.682;2023-04-24T15:14:42;16.20;53.90
65568;DHT22;52211;50.154;8.682;2023-04-24T15:17:15;16.20;54.20
65568;DHT22;52211;50.154;8.682;2023-04-24T15:19:45;16.10;53.90
65568;DHT22;52211;50.154;8.682;2023-04-24T15:22:14;16.10;54.10
65568;DHT22;52211;50.154;8.682;2023-04-24T15:24:41;16.10;54.10
65568;DHT22;52211;50.154;8.682;2023-04-24T15:27:10;16.10;54.10
65568;DHT22;52211;50.154;8.682;2023-04-24T15:29:40;16.00;54.70
65568;DHT22;52211;50.154;8.682;2023-04-24T15:32:12;16.00;54.20
65568;DHT22;52211;50.154;8.682;2023-04-24T15:34:38;15.90;54.60
65568;DHT22;52211;50.154;8.682;2023-04-24T15:37:05;15.90;53.90
65568;DHT22;52211;50.154;8.682;2023-04-24T15:39:39;15.90;53.40
65568;DHT22;52211;50.154;8.682;2023-04-24T15:42:06;15.80;53.40
65568;DHT22;52211;50.154;8.682;2023-04-24T15:44:33;15.80;53.60
65568;DHT22;52211;50.154;8.682;2023-04-24T15:47:05;15.80;53.50
65568;DHT22;52211;50.154;8.682;2023-04-24T15:49:34;15.80;53.40
65568;DHT22;52211;50.154;8.682;2023-04-24T15:52:03;15.80;53.00
65568;DHT22;52211;50.154;8.682;2023-04-24T15:54:36;15.80;53.00
65568;DHT22;52211;50.154;8.682;2023-04-24T15:57:04;15.80;52.70
65568;DHT22;52211;50.154;8.682;2023-04-24T15:59:31;15.70;52.50
65568;DHT22;52211;50.154;8.682;2023-04-24T16:02:01;15.70;52.60
65568;DHT22;52211;50.154;8.682;2023-04-24T16:04:32;15.70;52.70
65568;DHT22;52211;50.154;8.682;2023-04-24T16:07:03;15.70;52.80